Time;durP1;ratioP1;P1;durP2;ratioP2;P2;SDS_P1;SDS_P2;PMS_P1;PMS_P2;Temp;Humidity;BMP_temperature;BMP_pressure;BME280_temperature;BME280_humidity;BME280_pressure;Samples;Min_cycle;Max_cycle;Signal;HPM_P1;HPM_P2
2021/07/09 02:47:17;;;;;;;2.38;0.90;;;21.30;94.30;;;;;;4891357;24;20068;-73
2021/07/09 02:49:43;;;;;;;2.63;0.70;;;21.40;94.20;;;;;;4744834;30;20177;-72
2021/07/09 02:52:09;;;;;;;3.58;1.25;;;21.50;94.20;;;;;;4745378;30;20105;-72
2021/07/09 02:54:35;;;;;;;4.40;0.90;;;21.50;94.20;;;;;;4767226;30;20027;-72
2021/07/09 02:57:01;;;;;;;2.67;1.13;;;21.50;94.00;;;;;;4751159;30;20051;-73
2021/07/09 02:59:27;;;;;;;4.55;1.30;;;21.60;94.00;;;;;;4781931;30;20032;-73
2021/07/09 03:01:53;;;;;;;3.03;1.42;;;21.70;94.20;;;;;;4765989;30;20094;-72
2021/07/09 03:04:18;;;;;;;1.70;1.23;;;21.80;94.30;;;;;;4782022;30;20319;-73
2021/07/09 03:06:44;;;;;;;3.78;1.20;;;21.80;94.00;;;;;;4765979;30;20035;-73
2021/07/09 03:09:11;;;;;;;1.90;1.40;;;21.90;93.40;;;;;;4781934;30;20046;-72
2021/07/09 03:11:38;;;;;;;2.88;1.10;;;22.00;93.70;;;;;;4765907;30;20045;-72
2021/07/09 03:14:08;;;;;;;3.08;1.10;;;22.00;93.90;;;;;;4765829;30;20035;-73
2021/07/09 03:16:34;;;;;;;1.60;1.17;;;22.10;94.00;;;;;;4765357;30;20084;-72
2021/07/09 03:19:00;;;;;;;4.18;1.20;;;22.10;93.60;;;;;;4781469;30;20095;-72
2021/07/09 03:21:26;;;;;;;2.67;1.08;;;22.10;93.30;;;;;;4781044;30;20095;-72
2021/07/09 03:23:52;;;;;;;1.88;1.00;;;22.00;93.50;;;;;;4780621;30;20032;-72
2021/07/09 03:26:18;;;;;;;2.70;1.13;;;21.90;93.40;;;;;;4765536;30;20427;-73
2021/07/09 03:28:44;;;;;;;3.78;1.48;;;21.90;93.60;;;;;;4781446;30;20258;-72
2021/07/09 03:31:11;;;;;;;4.43;1.20;;;22.00;93.60;;;;;;4781536;30;20031;-72
2021/07/09 03:33:36;;;;;;;2.78;1.15;;;22.00;93.50;;;;;;4781441;30;20031;-73
2021/07/09 03:36:04;;;;;;;3.40;1.02;;;22.00;93.60;;;;;;4781385;30;20027;-73
2021/07/09 03:38:30;;;;;;;1.75;1.20;;;22.00;93.40;;;;;;4765300;30;20040;-73
2021/07/09 03:40:55;;;;;;;4.82;1.38;;;22.10;93.30;;;;;;4781378;30;20024;-73
2021/07/09 03:43:21;;;;;;;3.97;1.20;;;22.10;93.00;;;;;;4765463;30;20107;-73
2021/07/09 03:45:47;;;;;;;5.63;1.45;;;22.20;93.30;;;;;;4780957;30;20358;-73
2021/07/09 03:48:13;;;;;;;1.48;0.98;;;22.40;93.20;;;;;;4765200;30;20035;-73
2021/07/09 03:50:38;;;;;;;2.13;1.20;;;22.50;92.70;;;;;;4781230;30;20043;-73
2021/07/09 03:53:05;;;;;;;1.77;1.10;;;22.60;92.40;;;;;;4781068;30;20035;-72
2021/07/09 03:55:31;;;;;;;2.95;1.02;;;22.50;92.10;;;;;;4781088;30;20027;-73
2021/07/09 03:57:57;;;;;;;1.50;0.85;;;22.50;92.40;;;;;;4780955;30;20035;-73
2021/07/09 04:00:23;;;;;;;1.02;0.90;;;22.60;91.90;;;;;;4781089;30;20319;-72
2021/07/09 04:02:49;;;;;;;1.77;1.35;;;22.70;92.20;;;;;;4764927;30;20034;-72
2021/07/09 04:05:14;;;;;;;1.83;1.25;;;22.70;91.90;;;;;;4765009;30;20040;-72
2021/07/09 04:07:40;;;;;;;7.57;1.60;;;22.80;91.90;;;;;;4780847;30;20381;-73
2021/07/09 04:10:08;;;;;;;5.07;1.52;;;22.90;91.70;;;;;;4764926;30;20040;-73
2021/07/09 04:12:34;;;;;;;4.32;2.42;;;23.00;91.60;;;;;;4750130;30;20036;-72
2021/07/09 04:14:59;;;;;;;2.03;1.27;;;23.00;91.30;;;;;;4750112;30;20040;-73
2021/07/09 04:17:25;;;;;;;2.10;1.17;;;23.00;91.10;;;;;;4780426;30;20073;-73
2021/07/09 04:19:51;;;;;;;5.50;1.77;;;23.00;90.80;;;;;;4780662;30;20142;-72
2021/07/09 04:22:18;;;;;;;2.45;1.10;;;22.90;90.80;;;;;;4749823;30;20032;-74
2021/07/09 04:24:44;;;;;;;;;;;22.80;91.00;;;;;;4765267;30;20028;-73
2021/07/09 04:27:10;;;;;;;5.27;1.20;;;22.80;90.80;;;;;;4749715;30;20014;-73
2021/07/09 04:29:36;;;;;;;4.32;1.20;;;22.70;90.90;;;;;;4774788;30;20081;-73
2021/07/09 04:32:02;;;;;;;2.10;1.15;;;22.80;91.00;;;;;;4762440;30;20046;-73
2021/07/09 04:34:28;;;;;;;13.05;1.58;;;22.90;91.00;;;;;;4761432;30;20032;-73
2021/07/09 04:36:54;;;;;;;3.83;1.02;;;22.90;90.90;;;;;;4761496;30;20111;-73
2021/07/09 04:39:20;;;;;;;4.80;1.08;;;22.90;90.70;;;;;;4762291;30;20051;-73
2021/07/09 04:41:46;;;;;;;3.30;2.10;;;22.90;90.70;;;;;;4761507;30;20309;-73
2021/07/09 04:44:12;;;;;;;2.42;1.17;;;23.00;91.30;;;;;;4763334;30;20031;-73
2021/07/09 04:46:38;;;;;;;3.75;1.00;;;23.20;90.90;;;;;;4769162;30;20355;-73
2021/07/09 04:49:03;;;;;;;6.45;1.70;;;23.40;90.40;;;;;;4780130;30;20331;-73
2021/07/09 04:51:29;;;;;;;3.35;1.00;;;23.60;89.90;;;;;;4779951;30;20404;-72
2021/07/09 04:53:55;;;;;;;2.15;1.05;;;23.70;88.80;;;;;;4764078;30;20035;-74
2021/07/09 04:56:20;;;;;;;2.38;1.25;;;23.90;88.10;;;;;;4779824;30;20047;-74
2021/07/09 04:58:46;;;;;;;6.80;1.00;;;24.00;88.40;;;;;;4779739;30;20054;-74
2021/07/09 05:01:12;;;;;;;2.00;1.55;;;24.10;87.40;;;;;;4763883;30;20036;-73
2021/07/09 05:03:38;;;;;;;2.15;1.02;;;24.20;86.70;;;;;;4762314;30;20262;-74
2021/07/09 05:06:04;;;;;;;2.23;1.00;;;24.20;86.60;;;;;;4757839;30;20040;-73
2021/07/09 05:08:30;;;;;;;4.65;1.52;;;24.30;86.30;;;;;;4771401;30;20277;-74
2021/07/09 05:10:56;;;;;;;3.10;1.17;;;24.40;85.30;;;;;;4757205;30;20031;-74
2021/07/09 05:13:21;;;;;;;4.18;1.98;;;24.40;85.20;;;;;;4771258;30;20024;-73
2021/07/09 05:15:47;;;;;;;2.08;0.82;;;24.40;84.30;;;;;;4769773;30;20063;-74
2021/07/09 05:18:13;;;;;;;2.72;1.30;;;24.20;84.20;;;;;;4757169;30;20504;-74
2021/07/09 05:20:39;;;;;;;2.03;1.17;;;24.20;85.50;;;;;;4758643;30;20024;-75
2021/07/09 05:23:05;;;;;;;4.00;1.00;;;24.30;86.80;;;;;;4753811;30;20027;-74
2021/07/09 05:25:31;;;;;;;7.05;1.40;;;24.60;85.60;;;;;;4761105;30;20337;-74
2021/07/09 05:27:57;;;;;;;4.00;1.17;;;24.90;83.80;;;;;;4773250;30;20032;-74
2021/07/09 05:30:23;;;;;;;2.17;1.07;;;25.30;82.20;;;;;;4775316;30;20098;-74
2021/07/09 05:32:49;;;;;;;2.30;1.00;;;25.90;79.90;;;;;;4771120;30;20035;-75
2021/07/09 05:35:14;;;;;;;3.22;1.10;;;26.50;77.60;;;;;;4753522;30;20047;-74
2021/07/09 05:37:41;;;;;;;4.22;1.15;;;27.20;75.10;;;;;;4755819;30;20034;-74
2021/07/09 05:40:07;;;;;;;1.58;0.82;;;27.60;72.20;;;;;;4751410;30;20316;-74
2021/07/09 05:42:33;;;;;;;5.05;1.15;;;27.60;70.30;;;;;;4774078;30;20030;-74
2021/07/09 05:44:59;;;;;;;7.23;0.90;;;27.60;69.60;;;;;;4773172;30;20185;-75
2021/07/09 05:47:26;;;;;;;2.78;1.10;;;27.90;69.20;;;;;;4768420;30;20451;-74
2021/07/09 05:49:53;;;;;;;1.52;0.63;;;28.10;67.40;;;;;;4743180;30;20256;-72
2021/07/09 05:52:18;;;;;;;3.30;0.75;;;27.60;67.30;;;;;;4755536;30;20028;-72
2021/07/09 05:54:44;;;;;;;1.50;0.53;;;27.00;70.00;;;;;;4768452;30;20024;-73
2021/07/09 05:57:10;;;;;;;1.27;0.70;;;26.60;70.10;;;;;;4771078;30;20319;-72
2021/07/09 05:59:37;;;;;;;0.85;0.45;;;25.90;71.00;;;;;;4753033;30;20068;-73
2021/07/09 06:02:04;;;;;;;3.17;0.60;;;25.40;73.20;;;;;;4772304;30;20031;-73
2021/07/09 06:04:30;;;;;;;1.75;0.52;;;24.90;74.90;;;;;;4753004;30;20081;-73
2021/07/09 06:06:56;;;;;;;4.32;0.70;;;24.60;76.10;;;;;;4770089;30;20035;-73
2021/07/09 06:09:22;;;;;;;2.05;0.52;;;24.60;77.60;;;;;;4771274;30;20031;-73
2021/07/09 06:11:47;;;;;;;1.55;0.63;;;24.70;77.60;;;;;;4772227;30;20039;-73
2021/07/09 06:14:13;;;;;;;2.33;0.65;;;24.40;76.90;;;;;;4754246;30;20032;-73
2021/07/09 06:16:39;;;;;;;4.00;0.80;;;24.20;78.30;;;;;;4750972;30;20047;-72
2021/07/09 06:19:05;;;;;;;2.35;0.50;;;24.10;78.60;;;;;;4771119;30;20031;-72
2021/07/09 06:21:30;;;;;;;2.42;0.50;;;23.90;79.00;;;;;;4772672;30;20047;-72
2021/07/09 06:23:56;;;;;;;3.03;0.82;;;23.80;79.90;;;;;;4753277;30;20032;-72
2021/07/09 06:26:22;;;;;;;3.28;0.60;;;23.70;80.70;;;;;;4769119;30;20197;-73
2021/07/09 06:28:49;;;;;;;3.40;0.70;;;23.70;80.30;;;;;;4753576;30;20323;-73
2021/07/09 06:31:16;;;;;;;0.95;0.60;;;23.80;80.60;;;;;;4757435;30;20028;-75
2021/07/09 06:33:42;;;;;;;2.70;0.70;;;24.00;80.90;;;;;;4742669;30;20035;-74
2021/07/09 06:36:08;;;;;;;4.10;0.80;;;24.20;79.70;;;;;;4771502;30;20340;-74
2021/07/09 06:38:33;;;;;;;5.65;1.30;;;24.50;78.20;;;;;;4754387;30;20334;-74
2021/07/09 06:40:59;;;;;;;1.40;0.82;;;24.30;78.40;;;;;;4755208;30;20364;-74
2021/07/09 06:43:25;;;;;;;2.92;0.60;;;24.30;79.20;;;;;;4774617;30;20020;-74
2021/07/09 06:45:51;;;;;;;1.23;0.70;;;24.20;78.00;;;;;;4760159;30;20047;-75
2021/07/09 06:48:17;;;;;;;0.57;0.55;;;24.20;78.50;;;;;;4769718;30;20258;-74
2021/07/09 06:50:42;;;;;;;3.03;0.60;;;24.30;76.90;;;;;;4775965;30;20024;-75
2021/07/09 06:53:08;;;;;;;2.80;0.32;;;24.20;76.10;;;;;;4755341;30;20034;-74
2021/07/09 06:55:34;;;;;;;0.63;0.60;;;24.30;76.50;;;;;;4755135;30;20081;-74
2021/07/09 06:58:00;;;;;;;1.80;0.70;;;24.40;75.60;;;;;;4772659;30;20099;-74
2021/07/09 07:00:26;;;;;;;1.95;0.70;;;24.40;75.50;;;;;;4755272;30;20035;-74
2021/07/09 07:02:52;;;;;;;4.03;0.90;;;24.50;74.40;;;;;;4757422;30;20334;-74
2021/07/09 07:05:18;;;;;;;1.15;0.60;;;24.40;74.60;;;;;;4770525;30;20031;-75
2021/07/09 07:07:45;;;;;;;2.37;0.53;;;24.50;74.80;;;;;;4773669;30;20024;-75
2021/07/09 07:10:11;;;;;;;2.47;1.03;;;24.80;74.10;;;;;;4770809;30;20307;-74
2021/07/09 07:12:38;;;;;;;2.63;0.93;;;24.90;72.70;;;;;;4773805;30;20035;-75
2021/07/09 07:15:08;;;;;;;3.13;1.20;;;25.00;72.60;;;;;;4763169;30;20036;-74
2021/07/09 07:17:34;;;;;;;1.40;0.73;;;25.10;73.10;;;;;;4740493;30;20327;-74
2021/07/09 07:20:00;;;;;;;3.95;1.63;;;25.40;72.20;;;;;;4772049;30;20054;-75
2021/07/09 07:22:26;;;;;;;1.93;0.87;;;25.30;70.40;;;;;;4759161;30;20020;-75
2021/07/09 07:24:52;;;;;;;1.00;0.70;;;25.30;70.70;;;;;;4758096;30;20023;-74
2021/07/09 07:27:21;;;;;;;3.87;1.00;;;25.50;69.60;;;;;;4761530;30;20024;-74
2021/07/09 07:29:47;;;;;;;2.67;1.23;;;25.60;68.90;;;;;;4771578;30;20308;-74
2021/07/09 07:32:13;;;;;;;6.43;1.07;;;25.60;69.70;;;;;;4776369;30;20304;-74
2021/07/09 07:34:40;;;;;;;1.92;0.88;;;25.90;68.60;;;;;;4746684;30;20032;-75
2021/07/09 07:37:07;;;;;;;1.45;1.00;;;26.00;67.80;;;;;;4762047;30;20039;-74
2021/07/09 07:39:33;;;;;;;1.98;1.10;;;26.30;68.30;;;;;;4763347;30;20051;-75
2021/07/09 07:41:59;;;;;;;3.63;1.00;;;26.70;68.40;;;;;;4762224;30;20028;-74
2021/07/09 07:44:26;;;;;;;1.90;1.02;;;27.10;64.90;;;;;;4763728;30;20032;-74
2021/07/09 07:46:54;;;;;;;1.92;1.13;;;27.00;65.70;;;;;;4770456;30;20043;-74
2021/07/09 07:49:22;;;;;;;0.90;0.80;;;27.10;64.10;;;;;;4774843;30;20127;-74
2021/07/09 07:51:50;;;;;;;3.15;1.10;;;26.80;63.30;;;;;;4772038;30;20023;-74
2021/07/09 07:54:16;;;;;;;1.40;0.95;;;26.30;64.10;;;;;;4773629;30;20031;-74
2021/07/09 07:56:42;;;;;;;1.37;0.90;;;26.30;65.80;;;;;;4755396;30;20036;-74
2021/07/09 07:59:08;;;;;;;1.58;0.90;;;26.20;65.00;;;;;;4762847;30;20169;-74
2021/07/09 08:01:33;;;;;;;1.70;0.90;;;26.00;65.60;;;;;;4762741;30;20065;-75
2021/07/09 08:03:59;;;;;;;1.42;1.33;;;25.70;65.90;;;;;;4773164;30;20250;-74
2021/07/09 08:06:25;;;;;;;2.03;1.00;;;25.40;66.30;;;;;;4764587;30;20384;-74
2021/07/09 08:08:51;;;;;;;1.45;1.35;;;25.10;68.10;;;;;;4749604;30;20039;-75
2021/07/09 08:11:17;;;;;;;1.27;1.00;;;24.90;69.30;;;;;;4753268;30;20043;-75
2021/07/09 08:13:43;;;;;;;1.37;1.13;;;24.80;68.80;;;;;;4780218;30;20035;-74
2021/07/09 08:16:11;;;;;;;1.40;1.30;;;24.50;70.00;;;;;;4764724;30;20143;-74
2021/07/09 08:18:37;;;;;;;3.17;1.10;;;24.60;70.60;;;;;;4764250;30;20036;-74
2021/07/09 08:21:03;;;;;;;2.55;1.30;;;24.50;70.50;;;;;;4780299;30;20024;-74
2021/07/09 08:23:29;;;;;;;2.40;1.70;;;24.40;70.80;;;;;;4780569;30;20023;-74
2021/07/09 08:25:57;;;;;;;3.35;1.40;;;24.30;71.40;;;;;;4758446;30;20040;-74
2021/07/09 08:28:23;;;;;;;;;;;24.30;71.70;;;;;;4774773;30;20027;-74
2021/07/09 08:30:49;;;;;;;3.60;1.00;;;24.20;71.10;;;;;;4768400;30;19984;-74
2021/07/09 08:33:15;;;;;;;4.80;1.33;;;24.30;71.60;;;;;;4762393;30;20043;-74
2021/07/09 08:35:44;;;;;;;2.50;1.13;;;24.20;72.30;;;;;;4759111;30;20027;-74
2021/07/09 08:38:10;;;;;;;2.80;1.10;;;24.30;71.80;;;;;;4779747;30;20031;-74
2021/07/09 08:40:37;;;;;;;2.85;0.98;;;24.30;71.10;;;;;;4780431;30;20040;-75
2021/07/09 08:43:04;;;;;;;2.28;1.30;;;24.30;71.50;;;;;;4764815;30;20031;-74
2021/07/09 08:45:30;;;;;;;3.72;1.08;;;24.20;71.60;;;;;;4764179;30;20058;-74
2021/07/09 08:47:56;;;;;;;0.80;0.80;;;24.40;72.00;;;;;;4780394;30;20035;-75
2021/07/09 08:50:31;;;;;;;3.65;1.13;;;24.30;71.40;;;;;;4776292;30;20103;-74
2021/07/09 08:52:57;;;;;;;4.13;0.65;;;24.40;70.10;;;;;;4738592;30;20032;-75
2021/07/09 08:55:26;;;;;;;1.20;0.90;;;24.50;69.60;;;;;;4732114;30;20209;-75
2021/07/09 08:57:53;;;;;;;5.90;0.70;;;24.40;70.20;;;;;;4756270;30;20305;-75
2021/07/09 09:00:22;;;;;;;;;;;24.40;69.50;;;;;;4752465;30;20095;-74
2021/07/09 09:02:49;;;;;;;5.80;0.90;;;24.40;70.20;;;;;;4769810;30;19910;-75
2021/07/09 09:05:24;;;;;;;3.20;0.90;;;24.50;69.90;;;;;;4763259;30;20082;-75
2021/07/09 09:08:00;;;;;;;1.30;0.90;;;24.70;68.40;;;;;;4779232;30;20039;-75
2021/07/09 09:10:36;;;;;;;3.35;0.73;;;24.80;67.80;;;;;;4764052;30;20357;-75
2021/07/09 09:13:32;;;;;;;1.02;0.77;;;24.90;66.20;;;;;;4763694;30;20110;-75
2021/07/09 09:16:07;;;;;;;0.60;0.60;;;24.70;67.90;;;;;;4690565;30;20653;-74
2021/07/09 09:18:39;;;;;;;4.47;1.23;;;24.70;67.40;;;;;;4690581;30;20106;-74
2021/07/09 09:21:04;;;;;;;1.95;0.80;;;24.60;68.20;;;;;;4690357;30;20049;-75
2021/07/09 09:23:32;;;;;;;2.97;0.68;;;24.60;68.20;;;;;;4690113;30;20113;-74
2021/07/09 09:25:59;;;;;;;1.35;0.80;;;24.50;67.80;;;;;;4689993;30;20881;-74
2021/07/09 09:28:26;;;;;;;;;;;24.50;68.10;;;;;;4690916;30;20102;-75
2021/07/09 09:30:55;;;;;;;1.30;0.70;;;24.60;68.50;;;;;;4704701;30;19918;-76
2021/07/09 09:33:22;;;;;;;1.75;1.17;;;24.80;68.30;;;;;;4707469;30;20041;-75
2021/07/09 09:35:56;;;;;;;1.30;0.98;;;25.00;67.10;;;;;;4708000;30;20080;-76
2021/07/09 09:38:27;;;;;;;3.22;1.15;;;24.90;67.40;;;;;;4693114;30;20233;-75
2021/07/09 09:40:55;;;;;;;4.20;1.13;;;25.10;67.40;;;;;;4707831;30;20025;-74
2021/07/09 09:43:43;;;;;;;1.05;0.88;;;25.00;66.30;;;;;;4707777;30;20255;-72
2021/07/09 09:46:24;;;;;;;5.75;1.02;;;24.60;67.10;;;;;;4707660;30;20050;-73
2021/07/09 09:48:50;;;;;;;1.25;0.88;;;24.40;67.70;;;;;;4707581;30;20052;-73
2021/07/09 09:51:30;;;;;;;2.30;0.80;;;24.20;68.10;;;;;;4710893;30;20041;-74
2021/07/09 09:54:10;;;;;;;0.98;0.70;;;24.20;68.80;;;;;;4746051;30;20036;-73
2021/07/09 09:56:47;;;;;;;1.73;0.75;;;24.30;67.60;;;;;;4731812;30;20443;-74
2021/07/09 09:59:21;;;;;;;0.87;0.60;;;24.30;68.00;;;;;;4745924;30;20115;-74
2021/07/09 10:01:54;;;;;;;5.15;0.85;;;24.20;68.90;;;;;;4731750;30;20032;-73
2021/07/09 10:04:21;;;;;;;2.33;0.63;;;24.20;67.90;;;;;;4747048;30;20095;-73
2021/07/09 10:06:47;;;;;;;;;;;24.30;68.10;;;;;;4749850;30;20032;-74
2021/07/09 10:09:14;;;;;;;3.42;0.57;;;24.40;68.30;;;;;;4765260;30;19932;-74
2021/07/09 10:11:41;;;;;;;1.85;0.70;;;24.50;67.00;;;;;;4765243;30;20024;-74
2021/07/09 10:14:15;;;;;;;2.97;1.00;;;24.50;67.50;;;;;;4765086;30;20142;-73
2021/07/09 10:16:42;;;;;;;1.17;0.70;;;24.60;66.20;;;;;;4763961;30;20036;-74
2021/07/09 10:19:10;;;;;;;1.70;0.70;;;24.60;66.10;;;;;;4756879;30;20038;-74
2021/07/09 10:21:40;;;;;;;4.38;1.83;;;24.70;66.40;;;;;;4771531;30;20095;-73
2021/07/09 10:24:08;;;;;;;3.10;0.40;;;24.80;66.20;;;;;;4772220;30;20035;-73
2021/07/09 10:26:40;;;;;;;1.73;0.63;;;25.00;65.10;;;;;;4774555;30;20028;-74
2021/07/09 10:29:13;;;;;;;2.15;0.63;;;25.10;63.90;;;;;;4763808;30;20039;-73
2021/07/09 10:31:41;;;;;;;2.83;0.95;;;24.90;63.60;;;;;;4763731;30;20209;-74
2021/07/09 10:34:49;;;;;;;1.83;0.50;;;25.10;64.70;;;;;;4764664;30;20036;-74
2021/07/09 10:37:34;;;;;;;1.95;0.75;;;25.10;64.30;;;;;;4727057;30;20144;-73
2021/07/09 10:40:10;;;;;;;0.70;0.40;;;25.10;64.80;;;;;;4727603;30;20059;-73
2021/07/09 10:42:43;;;;;;;3.78;0.50;;;25.40;65.00;;;;;;4727670;30;20353;-74
2021/07/09 10:45:18;;;;;;;4.70;0.60;;;25.50;63.30;;;;;;4727809;30;20036;-74
2021/07/09 10:48:02;;;;;;;1.90;0.40;;;25.80;62.90;;;;;;4713124;30;20048;-74
2021/07/09 10:50:46;;;;;;;1.88;0.52;;;26.00;62.40;;;;;;4727670;30;20033;-74
2021/07/09 10:53:13;;;;;;;6.93;0.98;;;25.80;61.80;;;;;;4712656;30;20284;-73
2021/07/09 10:55:57;;;;;;;;;;;25.80;62.20;;;;;;4727206;30;20332;-73
2021/07/09 10:58:26;;;;;;;1.55;0.55;;;25.90;61.90;;;;;;4710254;30;19914;-74
2021/07/09 11:00:56;;;;;;;2.78;0.77;;;25.90;61.80;;;;;;4726915;30;20112;-73
2021/07/09 11:03:42;;;;;;;2.50;0.60;;;25.70;61.80;;;;;;4709843;30;20091;-73
2021/07/09 11:06:11;;;;;;;1.70;0.50;;;25.70;61.90;;;;;;4722891;30;20052;-74
2021/07/09 11:08:51;;;;;;;0.77;0.50;;;25.70;62.30;;;;;;4709593;30;20033;-73
2021/07/09 11:11:34;;;;;;;1.80;0.60;;;25.70;61.70;;;;;;4709826;30;20273;-71
2021/07/09 11:14:30;;;;;;;0.60;0.50;;;25.80;61.50;;;;;;4748215;30;20328;-72
2021/07/09 11:16:59;;;;;;;3.22;0.63;;;25.80;60.30;;;;;;4752204;30;20062;-72
2021/07/09 11:19:31;;;;;;;1.42;0.95;;;25.70;59.80;;;;;;4734283;30;20043;-72
2021/07/09 11:22:02;;;;;;;1.75;0.50;;;25.60;59.90;;;;;;4781707;30;20040;-73
2021/07/09 11:24:30;;;;;;;1.58;0.57;;;25.80;60.60;;;;;;4765746;30;20090;-73
2021/07/09 11:27:00;;;;;;;3.70;0.70;;;25.90;59.70;;;;;;4781536;30;20323;-73
2021/07/09 11:29:27;;;;;;;1.83;0.35;;;25.90;59.10;;;;;;4746645;30;20028;-73
2021/07/09 11:32:08;;;;;;;;;;;25.80;58.50;;;;;;4763158;30;20078;-73
2021/07/09 11:34:39;;;;;;;6.18;0.50;;;25.90;59.50;;;;;;4747970;30;19914;-73
2021/07/09 11:37:18;;;;;;;8.20;0.93;;;25.80;58.60;;;;;;4763769;30;20044;-72
2021/07/09 11:39:46;;;;;;;7.60;0.63;;;25.40;58.70;;;;;;4763371;30;20028;-72
2021/07/09 11:42:41;;;;;;;0.30;0.30;;;25.40;59.20;;;;;;4763315;30;20036;-72
2021/07/09 11:45:09;;;;;;;1.30;0.47;;;25.40;59.90;;;;;;4660551;30;20038;-72
2021/07/09 11:47:38;;;;;;;0.88;0.30;;;25.40;59.60;;;;;;4676647;30;20129;-72
2021/07/09 11:50:14;;;;;;;3.35;0.52;;;25.30;59.40;;;;;;4691412;30;20046;-72
2021/07/09 11:52:43;;;;;;;0.55;0.40;;;25.20;59.60;;;;;;4691375;30;20041;-71
2021/07/09 11:55:11;;;;;;;2.67;0.40;;;25.00;59.60;;;;;;4691699;30;20045;-71
2021/07/09 11:57:40;;;;;;;0.75;0.30;;;24.80;60.00;;;;;;4691652;30;20257;-71
2021/07/09 12:00:15;;;;;;;7.35;0.43;;;24.80;60.70;;;;;;4691596;30;20075;-72
2021/07/09 12:02:43;;;;;;;1.33;0.30;;;24.90;60.30;;;;;;4691920;30;20274;-71
2021/07/09 12:05:12;;;;;;;0.40;0.20;;;25.00;60.60;;;;;;4676535;30;20026;-71
2021/07/09 12:07:41;;;;;;;0.60;0.30;;;25.20;59.00;;;;;;4691471;30;20042;-71
2021/07/09 12:10:18;;;;;;;2.78;0.40;;;25.10;58.70;;;;;;4690834;30;20185;-71
2021/07/09 12:12:47;;;;;;;1.05;0.30;;;24.90;60.00;;;;;;4676610;30;20046;-72
2021/07/09 12:15:23;;;;;;;4.15;0.60;;;25.00;59.80;;;;;;4676399;30;20109;-71
2021/07/09 12:17:50;;;;;;;0.28;0.28;;;24.90;59.80;;;;;;4691152;30;20353;-71
2021/07/09 12:20:20;;;;;;;0.47;0.43;;;24.90;60.00;;;;;;4690623;30;20066;-71
2021/07/09 12:22:50;;;;;;;2.90;0.22;;;24.80;60.80;;;;;;4777377;30;20032;-72
2021/07/09 12:25:19;;;;;;;1.40;0.65;;;24.90;61.00;;;;;;4780508;30;20115;-71
2021/07/09 12:27:46;;;;;;;1.63;0.73;;;24.90;61.40;;;;;;4763624;30;20099;-71
2021/07/09 12:30:15;;;;;;;7.10;0.50;;;24.70;60.80;;;;;;4770693;30;20039;-72
2021/07/09 12:32:42;;;;;;;0.88;0.70;;;24.80;61.00;;;;;;4746516;30;20342;-71
2021/07/09 12:35:09;;;;;;;6.70;0.50;;;24.80;61.00;;;;;;4761518;30;20032;-71
2021/07/09 12:37:35;;;;;;;0.73;0.38;;;25.00;60.90;;;;;;4761417;30;20032;-72
2021/07/09 12:40:16;;;;;;;2.53;0.90;;;25.00;60.30;;;;;;4761350;30;20227;-71
2021/07/09 12:42:44;;;;;;;0.95;0.40;;;25.10;60.80;;;;;;4762371;30;20039;-71
2021/07/09 12:45:10;;;;;;;1.38;0.40;;;25.20;60.30;;;;;;4770903;30;20023;-71
2021/07/09 12:47:52;;;;;;;2.85;0.55;;;25.10;60.10;;;;;;4763699;30;20085;-71
2021/07/09 12:50:25;;;;;;;0.40;0.30;;;25.00;59.60;;;;;;4761667;30;20028;-71
2021/07/09 12:52:51;;;;;;;0.75;0.38;;;25.00;59.10;;;;;;4773959;30;20047;-71
2021/07/09 12:55:33;;;;;;;1.23;0.35;;;25.10;59.30;;;;;;4763717;30;20024;-71
2021/07/09 12:58:34;;;;;;;1.67;0.30;;;25.10;59.30;;;;;;4779756;30;20108;-72
2021/07/09 13:01:08;;;;;;;0.80;0.25;;;25.20;59.80;;;;;;4727559;30;20290;-72
2021/07/09 13:03:36;;;;;;;3.80;0.30;;;25.30;58.80;;;;;;4742902;30;20047;-71
2021/07/09 13:06:11;;;;;;;0.52;0.40;;;25.40;59.10;;;;;;4728202;30;20036;-71
2021/07/09 13:08:39;;;;;;;2.35;0.30;;;25.40;59.40;;;;;;4728254;30;20115;-71
2021/07/09 13:11:19;;;;;;;0.57;0.32;;;25.50;58.90;;;;;;4742272;30;20340;-71
2021/07/09 13:13:50;;;;;;;2.33;0.88;;;25.70;58.70;;;;;;4742609;30;20040;-71
2021/07/09 13:16:18;;;;;;;0.20;0.20;;;25.90;58.20;;;;;;4742245;30;20090;-71
2021/07/09 13:18:52;;;;;;;0.73;0.50;;;26.20;57.60;;;;;;4734744;30;20044;-71
2021/07/09 13:21:17;;;;;;;2.70;0.73;;;26.60;57.30;;;;;;4742376;30;20028;-71
2021/07/09 13:24:00;;;;;;;0.85;0.30;;;27.10;57.30;;;;;;4727765;30;20047;-71
2021/07/09 13:26:36;;;;;;;1.85;0.43;;;27.80;56.40;;;;;;4726995;30;20339;-71
2021/07/09 13:29:03;;;;;;;4.50;0.40;;;28.10;53.60;;;;;;4727770;30;20233;-71
2021/07/09 13:31:29;;;;;;;2.30;0.30;;;28.50;53.40;;;;;;4725443;30;20045;-70
2021/07/09 13:33:55;;;;;;;1.05;0.20;;;29.00;53.20;;;;;;4719710;30;20044;-71
2021/07/09 13:36:34;;;;;;;6.13;1.10;;;29.30;51.40;;;;;;4735420;30;20083;-72
2021/07/09 13:39:04;;;;;;;2.95;0.50;;;29.50;51.80;;;;;;4761495;30;20166;-71
2021/07/09 13:41:30;;;;;;;0.70;0.20;;;29.60;50.30;;;;;;4755589;30;20028;-72
2021/07/09 13:43:56;;;;;;;3.60;0.43;;;29.50;48.00;;;;;;4745879;30;20103;-72
2021/07/09 13:46:25;;;;;;;3.65;0.30;;;29.40;47.40;;;;;;4772914;30;20043;-72
2021/07/09 13:48:51;;;;;;;0.85;0.30;;;29.10;46.90;;;;;;4758967;30;20245;-71
2021/07/09 13:51:20;;;;;;;7.03;0.22;;;29.00;46.70;;;;;;4770855;30;20266;-73
2021/07/09 13:53:46;;;;;;;0.32;0.22;;;29.00;47.30;;;;;;4759780;30;20047;-71
2021/07/09 13:56:13;;;;;;;0.38;0.20;;;28.90;47.60;;;;;;4760610;30;20051;-71
2021/07/09 13:58:38;;;;;;;0.60;0.33;;;29.00;47.20;;;;;;4763386;30;20324;-71
2021/07/09 14:01:06;;;;;;;0.40;0.20;;;29.10;47.00;;;;;;4763170;30;20050;-71
2021/07/09 14:03:33;;;;;;;1.27;0.32;;;29.00;46.10;;;;;;4779206;30;20039;-71
2021/07/09 14:05:59;;;;;;;4.90;0.88;;;28.90;46.90;;;;;;4768219;30;20030;-71
2021/07/09 14:08:25;;;;;;;3.27;0.50;;;28.80;46.80;;;;;;4763636;30;20081;-71
2021/07/09 14:10:59;;;;;;;3.63;0.52;;;28.90;47.40;;;;;;4760234;30;20028;-71
2021/07/09 14:13:33;;;;;;;0.38;0.20;;;28.90;46.80;;;;;;4779096;30;20051;-71
2021/07/09 14:16:00;;;;;;;0.40;0.30;;;29.00;47.30;;;;;;4779089;30;20177;-71
2021/07/09 14:18:25;;;;;;;;;;;28.80;45.30;;;;;;4771762;30;20220;-71
2021/07/09 14:20:52;;;;;;;1.70;0.20;;;28.80;44.40;;;;;;4763175;30;19977;-71
2021/07/09 14:23:18;;;;;;;0.82;0.30;;;28.60;45.00;;;;;;4770049;30;20063;-71
2021/07/09 14:25:44;;;;;;;0.60;0.25;;;28.50;45.40;;;;;;4767092;30;20090;-71
2021/07/09 14:28:11;;;;;;;0.30;0.20;;;28.30;45.80;;;;;;4778554;30;20027;-71
2021/07/09 14:30:41;;;;;;;0.52;0.20;;;28.40;46.20;;;;;;4773460;30;20027;-71
2021/07/09 14:33:08;;;;;;;0.32;0.10;;;28.50;46.70;;;;;;4770599;30;20032;-71
2021/07/09 14:35:35;;;;;;;0.77;0.20;;;28.80;46.50;;;;;;4777261;30;20099;-71
2021/07/09 14:38:02;;;;;;;0.60;0.20;;;28.80;45.70;;;;;;4777960;30;20044;-71
2021/07/09 14:40:27;;;;;;;0.80;0.45;;;28.80;46.20;;;;;;4765079;30;20024;-71
2021/07/09 14:42:53;;;;;;;3.53;0.40;;;28.70;44.70;;;;;;4751219;30;20110;-71
2021/07/09 14:45:19;;;;;;;3.50;0.90;;;28.40;45.80;;;;;;4777930;30;20028;-71
2021/07/09 14:47:45;;;;;;;0.25;0.20;;;28.40;46.40;;;;;;4778577;30;20257;-71
2021/07/09 14:50:17;;;;;;;9.40;0.77;;;28.60;46.40;;;;;;4778437;30;20028;-71
2021/07/09 14:52:43;;;;;;;1.67;0.38;;;28.50;45.10;;;;;;4780201;30;20040;-71
2021/07/09 14:55:11;;;;;;;0.40;0.22;;;28.40;44.70;;;;;;4775028;30;20035;-72
2021/07/09 14:57:38;;;;;;;3.53;0.30;;;28.30;45.90;;;;;;4769330;30;20073;-71
2021/07/09 15:00:12;;;;;;;0.73;0.38;;;28.30;45.60;;;;;;4780758;30;20032;-71
2021/07/09 15:02:39;;;;;;;0.65;0.40;;;28.20;46.60;;;;;;4742862;30;20109;-71
2021/07/09 15:05:08;;;;;;;2.78;0.40;;;28.20;46.20;;;;;;4764027;30;20031;-72
2021/07/09 15:07:34;;;;;;;1.38;0.40;;;28.40;46.90;;;;;;4781732;30;20281;-71
2021/07/09 15:10:01;;;;;;;3.10;0.30;;;28.60;45.50;;;;;;4780704;30;20097;-73
2021/07/09 15:12:27;;;;;;;1.52;0.30;;;28.60;46.30;;;;;;4781726;30;20028;-73
2021/07/09 15:14:53;;;;;;;0.53;0.33;;;28.60;45.90;;;;;;4765782;30;20042;-73
2021/07/09 15:17:19;;;;;;;2.80;0.53;;;28.50;45.50;;;;;;4781494;30;20028;-73
2021/07/09 15:19:45;;;;;;;0.57;0.20;;;28.40;45.60;;;;;;4776202;30;20036;-73
2021/07/09 15:22:11;;;;;;;0.30;0.22;;;28.40;45.70;;;;;;4765586;30;20032;-74
2021/07/09 15:24:37;;;;;;;3.63;0.30;;;28.20;45.90;;;;;;4781308;30;20057;-73
2021/07/09 15:27:03;;;;;;;1.38;0.40;;;28.00;47.10;;;;;;4765315;30;20320;-73
2021/07/09 15:29:28;;;;;;;0.83;0.43;;;28.10;46.80;;;;;;4780110;30;20046;-74
2021/07/09 15:31:54;;;;;;;2.00;0.30;;;27.90;46.20;;;;;;4781065;30;20036;-73
2021/07/09 15:34:20;;;;;;;1.83;0.17;;;27.70;46.00;;;;;;4744110;30;20036;-74
2021/07/09 15:36:46;;;;;;;0.47;0.30;;;27.70;47.30;;;;;;4744001;30;20036;-73
2021/07/09 15:39:16;;;;;;;1.92;0.43;;;27.80;47.40;;;;;;4729118;30;20048;-74
2021/07/09 15:41:42;;;;;;;0.43;0.28;;;27.90;46.90;;;;;;4729315;30;20039;-73